Time;durP1;ratioP1;P1;durP2;ratioP2;P2;SDS_P1;SDS_P2;PMS_P1;PMS_P2;Temp;Humidity;BMP_temperature;BMP_pressure;BME280_temperature;BME280_humidity;BME280_pressure;Samples;Min_cycle;Max_cycle;Signal;HPM_P1;HPM_P2
2023/11/09 11:43:42;;;;;;;1.70;1.10;;;7.10;99.90;;;;;;2029879;69;25750;-91
2023/11/09 12:59:48;;;;;;;4.90;2.20;;;7.40;99.90;;;;;;1998043;70;25330;-90
2023/11/09 16:24:30;;;;;;;4.60;3.07;;;7.20;99.90;;;;;;1931274;73;25280;-89
2023/11/09 16:30:12;;;;;;;6.60;4.70;;;7.20;99.90;;;;;;2032346;69;26999;-86
2023/11/09 16:33:00;;;;;;;5.53;3.70;;;7.00;99.90;;;;;;2009661;71;25161;-86
2023/11/09 16:35:48;;;;;;;6.07;3.87;;;7.10;99.90;;;;;;1994004;71;25275;-88
2023/11/09 16:38:38;;;;;;;7.13;4.43;;;7.10;99.90;;;;;;1994860;71;25159;-86
2023/11/09 16:41:26;;;;;;;11.00;6.87;;;7.00;99.90;;;;;;2008762;71;25220;-86
2023/11/09 16:44:15;;;;;;;13.23;6.27;;;7.00;99.90;;;;;;1959642;72;26622;-86
2023/11/09 16:47:05;;;;;;;11.07;5.03;;;6.90;99.90;;;;;;1970064;72;25870;-86
2023/11/09 16:49:55;;;;;;;7.03;4.47;;;6.80;99.90;;;;;;1968377;72;25359;-86
2023/11/09 16:52:44;;;;;;;9.00;4.97;;;6.80;99.90;;;;;;1976790;72;25220;-88
2023/11/09 16:55:34;;;;;;;14.90;6.83;;;7.00;99.90;;;;;;1972536;72;25912;-89
2023/11/09 16:58:30;;;;;;;10.50;6.03;;;7.00;99.90;;;;;;1977964;72;25316;-90
2023/11/09 17:01:19;;;;;;;7.10;4.60;;;7.00;99.90;;;;;;1964682;72;25297;-87
2023/11/09 17:04:08;;;;;;;47.43;24.63;;;7.10;99.90;;;;;;1903842;74;25281;-87
2023/11/09 17:06:56;;;;;;;26.03;14.03;;;7.20;99.90;;;;;;1983390;72;25761;-87
2023/11/09 17:09:45;;;;;;;18.00;9.73;;;7.10;99.90;;;;;;1963415;72;25222;-88
2023/11/09 17:12:34;;;;;;;71.53;44.30;;;7.10;99.90;;;;;;1926952;73;25327;-88
2023/11/09 17:15:23;;;;;;;15.13;6.23;;;6.90;99.90;;;;;;1961544;72;25990;-88
2023/11/09 17:21:32;;;;;;;8.80;5.13;;;7.00;99.90;;;;;;1990832;71;27081;-87
2023/11/09 17:24:21;;;;;;;10.27;5.83;;;7.00;99.90;;;;;;2031608;69;25754;-87
2023/11/09 17:27:10;;;;;;;17.00;10.10;;;7.00;99.90;;;;;;2024820;70;25124;-87
2023/11/09 17:30:04;;;;;;;8.73;5.30;;;7.00;99.90;;;;;;2012525;70;25300;-87
2023/11/09 17:32:50;;;;;;;9.77;5.60;;;7.00;99.90;;;;;;1999002;70;25173;-87
2023/11/09 17:35:38;;;;;;;12.37;6.03;;;6.90;99.90;;;;;;2021933;70;25643;-87
2023/11/09 17:38:27;;;;;;;7.90;4.67;;;6.80;99.90;;;;;;2029705;70;25237;-87
2023/11/09 17:41:17;;;;;;;8.77;4.67;;;6.80;99.90;;;;;;2020130;70;25236;-87
2023/11/09 17:44:07;;;;;;;7.30;4.20;;;6.90;99.90;;;;;;1987578;72;26508;-88
2023/11/09 17:46:56;;;;;;;6.03;4.23;;;6.80;99.90;;;;;;1985507;70;25143;-88
2023/11/09 17:49:48;;;;;;;6.13;4.00;;;6.80;99.90;;;;;;1911428;73;25231;-88
2023/11/09 17:52:36;;;;;;;6.60;3.47;;;6.80;99.90;;;;;;1900779;73;25193;-89
2023/11/09 17:55:25;;;;;;;6.73;3.20;;;6.80;99.90;;;;;;1908497;73;25187;-87
2023/11/09 17:58:13;;;;;;;5.17;2.87;;;6.80;99.90;;;;;;1950937;72;25240;-87
2023/11/09 18:01:02;;;;;;;4.23;2.97;;;6.70;99.90;;;;;;1940291;73;25177;-87
2023/11/09 18:06:29;;;;;;;3.20;2.90;;;6.70;99.90;;;;;;1931045;72;26978;-87
2023/11/09 18:09:19;;;;;;;6.23;2.83;;;6.60;99.90;;;;;;1900700;73;25244;-87
2023/11/09 18:12:10;;;;;;;4.17;2.83;;;6.60;99.90;;;;;;1909063;74;25327;-87
2023/11/09 18:14:59;;;;;;;3.83;2.67;;;6.60;99.90;;;;;;1913855;74;25370;-87
2023/11/09 18:17:48;;;;;;;4.73;3.03;;;6.50;99.90;;;;;;1907179;74;25699;-87
2023/11/09 18:20:37;;;;;;;4.10;3.47;;;6.50;99.90;;;;;;1900246;75;25347;-89
2023/11/09 18:23:26;;;;;;;4.50;3.20;;;6.50;99.90;;;;;;1895395;73;25806;-89
2023/11/09 18:26:15;;;;;;;3.50;2.70;;;6.50;99.90;;;;;;1894566;73;25237;-89
2023/11/09 18:29:04;;;;;;;4.13;2.63;;;6.60;99.90;;;;;;1860822;76;25190;-87
2023/11/09 18:31:52;;;;;;;3.83;2.53;;;6.50;99.90;;;;;;1867271;75;25286;-87
2023/11/09 18:34:41;;;;;;;4.37;2.63;;;6.50;99.90;;;;;;1834203;76;25195;-87
2023/11/09 18:40:14;;;;;;;2.00;1.80;;;6.40;99.90;;;;;;1925257;72;27464;-89
2023/11/09 18:46:22;;;;;;;2.53;1.60;;;6.40;99.90;;;;;;1986315;71;26906;-89
2023/11/09 18:49:10;;;;;;;1.40;1.30;;;6.40;99.90;;;;;;2008348;69;25256;-87
2023/11/09 18:54:39;;;;;;;2.27;1.50;;;6.30;99.90;;;;;;1948731;72;27536;-87
2023/11/09 18:57:27;;;;;;;2.37;1.80;;;6.20;99.90;;;;;;1931030;73;25692;-88
2023/11/09 19:00:16;;;;;;;1.30;1.20;;;6.20;99.90;;;;;;1917959;73;25662;-88
2023/11/09 19:05:51;;;;;;;1.33;1.23;;;6.20;99.90;;;;;;1954867;72;26966;-87
2023/11/09 19:11:23;;;;;;;0.97;0.97;;;6.30;99.90;;;;;;1930566;72;27628;-87
2023/11/09 19:14:14;;;;;;;5.87;1.23;;;6.40;99.90;;;;;;1893900;74;25235;-88
2023/11/09 19:17:02;;;;;;;2.87;2.07;;;6.50;99.90;;;;;;1889176;75;25192;-87
2023/11/09 19:19:51;;;;;;;2.57;1.47;;;6.50;99.90;;;;;;1898719;74;25215;-89
2023/11/09 19:22:40;;;;;;;1.70;1.60;;;6.40;99.90;;;;;;1891479;75;25693;-89
2023/11/09 19:25:29;;;;;;;2.63;1.47;;;6.30;99.90;;;;;;1898423;75;25208;-89
2023/11/09 19:41:22;;;;;;;1.00;1.00;;;6.20;99.90;;;;;;1808086;78;27744;-88
2023/11/09 19:46:57;;;;;;;1.17;1.07;;;6.20;99.90;;;;;;1947669;72;27077;-88
2023/11/09 19:49:45;;;;;;;1.30;1.20;;;6.20;99.90;;;;;;1924691;73;25832;-87
2023/11/09 19:52:35;;;;;;;0.90;0.90;;;6.20;99.90;;;;;;1920085;73;25259;-89
2023/11/09 19:55:24;;;;;;;2.53;2.00;;;6.10;99.90;;;;;;1919169;73;25291;-87
2023/11/09 19:58:13;;;;;;;0.90;0.90;;;6.10;99.90;;;;;;1932035;73;25271;-89
2023/11/09 20:03:47;;;;;;;0.70;0.70;;;6.00;99.90;;;;;;1945144;72;26992;-87
2023/11/09 20:06:36;;;;;;;0.60;0.60;;;6.00;99.90;;;;;;1933222;73;25763;-89
2023/11/09 20:09:25;;;;;;;1.00;1.00;;;6.00;99.90;;;;;;1925231;72;25220;-90
2023/11/09 20:12:14;;;;;;;0.80;0.80;;;6.00;99.90;;;;;;1935944;73;25317;-89
2023/11/09 20:29:14;;;;;;;4.67;3.20;;;6.10;99.90;;;;;;1892537;74;26451;-87
2023/11/09 20:34:44;;;;;;;6.67;3.83;;;6.10;99.90;;;;;;1914911;72;27176;-89
2023/11/09 20:43:13;;;;;;;5.03;3.40;;;6.00;99.90;;;;;;1958868;71;27203;-87
2023/11/09 20:46:02;;;;;;;1.47;1.33;;;6.10;99.90;;;;;;1905642;73;25247;-89
2023/11/09 20:48:51;;;;;;;1.10;1.00;;;6.00;99.90;;;;;;1919822;73;25231;-89
2023/11/09 20:51:40;;;;;;;1.50;1.40;;;5.90;99.90;;;;;;1923418;73;25721;-89
2023/11/09 20:54:29;;;;;;;2.67;2.40;;;5.90;99.90;;;;;;1910930;73;25219;-91
2023/11/09 21:11:02;;;;;;;1.70;1.20;;;5.70;99.90;;;;;;1957557;72;26315;-87
2023/11/09 21:16:36;;;;;;;1.03;1.00;;;6.00;99.90;;;;;;1947374;72;28137;-87
2023/11/09 21:19:25;;;;;;;1.30;1.20;;;6.00;99.90;;;;;;1888487;75;25767;-87
2023/11/09 21:22:14;;;;;;;1.30;1.20;;;6.00;99.90;;;;;;1899835;75;25206;-88
2023/11/09 21:25:03;;;;;;;1.17;1.00;;;6.00;99.90;;;;;;1852407;76;25368;-87
2023/11/09 21:27:51;;;;;;;1.27;1.17;;;6.00;99.90;;;;;;1863288;76;25241;-88
2023/11/09 21:30:40;;;;;;;2.40;1.10;;;6.00;99.90;;;;;;1840340;76;25336;-88
2023/11/09 21:33:28;;;;;;;1.43;1.20;;;6.00;99.90;;;;;;1864430;75;25392;-88
2023/11/09 21:39:08;;;;;;;1.70;1.30;;;6.00;99.90;;;;;;1944838;72;27044;-88
2023/11/09 21:44:45;;;;;;;1.10;1.00;;;6.00;99.90;;;;;;1938823;72;27047;-87
2023/11/09 21:47:33;;;;;;;2.50;1.00;;;6.00;99.90;;;;;;1922374;72;25225;-87
2023/11/09 21:50:22;;;;;;;1.10;1.10;;;6.00;99.90;;;;;;1922530;72;25220;-90
2023/11/09 21:56:08;;;;;;;0.90;0.90;;;5.90;99.90;;;;;;1947273;72;26972;-88
2023/11/09 21:58:58;;;;;;;0.80;0.80;;;5.90;99.90;;;;;;1931011;73;25566;-88
2023/11/09 22:04:32;;;;;;;0.83;0.83;;;5.80;99.90;;;;;;1932837;72;27062;-88
2023/11/09 22:10:11;;;;;;;0.90;0.90;;;5.90;99.90;;;;;;1945943;72;27135;-87
2023/11/09 22:13:00;;;;;;;1.57;0.80;;;5.90;99.90;;;;;;1907472;74;25293;-87
2023/11/09 22:15:48;;;;;;;1.03;0.80;;;5.80;99.90;;;;;;1907694;74;25227;-87
2023/11/09 22:18:38;;;;;;;0.90;0.90;;;5.90;99.90;;;;;;1914407;74;25659;-87
2023/11/09 22:21:28;;;;;;;0.80;0.80;;;5.90;99.90;;;;;;1929686;74;25194;-88
2023/11/09 22:24:16;;;;;;;1.37;1.00;;;6.00;99.90;;;;;;1909746;74;25224;-87
2023/11/09 22:27:05;;;;;;;1.70;1.00;;;5.90;99.90;;;;;;1914106;74;25222;-88
2023/11/09 22:29:54;;;;;;;1.10;1.00;;;5.90;99.90;;;;;;1910123;74;25230;-87
2023/11/09 22:32:42;;;;;;;0.77;0.77;;;5.90;99.90;;;;;;1905656;74;25756;-87
2023/11/09 22:35:30;;;;;;;0.70;0.70;;;5.90;99.90;;;;;;1904047;74;25299;-88
2023/11/09 22:38:19;;;;;;;1.70;0.80;;;6.00;99.90;;;;;;1904394;74;25239;-88
2023/11/09 22:41:08;;;;;;;2.53;0.83;;;5.90;99.90;;;;;;1925672;74;25319;-88
2023/11/09 22:43:57;;;;;;;0.73;0.73;;;6.00;99.90;;;;;;1890477;74;25240;-87
2023/11/09 22:46:46;;;;;;;0.77;0.77;;;5.90;99.90;;;;;;1874295;74;25260;-88
2023/11/09 22:49:35;;;;;;;2.33;0.80;;;5.90;99.90;;;;;;1895005;75;25257;-88
2023/11/09 22:55:16;;;;;;;1.57;0.80;;;5.80;99.90;;;;;;1959830;72;27571;-87
2023/11/09 23:01:01;;;;;;;0.80;0.80;;;5.80;99.90;;;;;;1955467;72;27390;-88
2023/11/09 23:03:50;;;;;;;0.83;0.83;;;6.00;99.90;;;;;;1923236;73;25234;-87
2023/11/09 23:06:38;;;;;;;0.90;0.90;;;6.00;99.90;;;;;;1926210;73;25156;-87
2023/11/09 23:09:27;;;;;;;0.97;0.80;;;6.10;99.90;;;;;;1931866;73;25630;-88
2023/11/09 23:12:15;;;;;;;1.00;0.80;;;6.00;99.90;;;;;;1934496;73;25210;-88
2023/11/09 23:15:05;;;;;;;1.30;1.03;;;6.00;99.90;;;;;;1941490;73;25253;-89
2023/11/09 23:17:54;;;;;;;1.10;1.00;;;5.90;99.90;;;;;;1946734;72;25237;-88
2023/11/09 23:20:43;;;;;;;0.80;0.80;;;5.80;99.90;;;;;;1935341;73;25293;-89
2023/11/09 23:23:33;;;;;;;0.97;0.93;;;5.70;99.90;;;;;;1922407;73;25245;-89
2023/11/09 23:26:22;;;;;;;1.60;1.07;;;5.70;99.90;;;;;;1937685;73;25639;-88
2023/11/09 23:29:11;;;;;;;1.20;1.10;;;5.70;99.90;;;;;;1946880;73;25345;-89
2023/11/09 23:31:59;;;;;;;2.93;1.50;;;5.60;99.90;;;;;;1923479;73;25165;-88
2023/11/09 23:34:49;;;;;;;3.80;1.30;;;5.60;99.90;;;;;;1931274;73;25237;-88
2023/11/09 23:55:29;;;;;;;3.73;1.37;;;5.60;99.90;;;;;;1955852;72;26948;-90
2023/11/09 23:58:17;;;;;;;3.60;1.27;;;5.50;99.90;;;;;;1876844;76;25659;-89
